Moosonee Airport
CYMO : rendu visible

Aérodrome :











RETROUVEZ-NOUS SUR...

 
LOGIN :

S'inscrire | Disclaimer

   EN    FR    IT 

 









Légende :    VFR   VFR Marginal   IFR   IFR Intensif   IFR Très Intensif
Visi : 
Plafond : 
>= 8 km
>= 3000ft
5 à 8 km
1000 à 3000 ft
1500m à 5 km
500 à 1000 ft
800 à 1500m
200 à 500 ft
< 800m
< 200 ft
Symboles :   Orages  Brouillard  Fortes neiges  Fortes précipitations  Vent > 20 kt






- Altitude de l'aérodrome : 30 ft
- Code IATA : YMO


CYMO - Moosonee

DERNIER METAR :
  • 190300Z AUTO 03004KT 9SM FEW110 OVC150 M16/M18 A3003 RMK SLP170

METARs EXPIRÉS :
  • 190200Z AUTO 04005KT 9SM OVC150 M15/M18 A3002 RMK SLP168
  • 190100Z AUTO 06008KT 9SM OVC180 M15/M18 A3004 RMK SLP174

TAF TAF CYMO
Valide du 19 à 00h jusqu'au 19 à 12h UTC


182338Z 1900/1912 07008KT P6SM OVC130
FM190600 01008KT P6SM OVC070
FM191100 35010KT P6SM OVC050 RMK FCST BASED ON AUTO OBS. NXT FCST BY 190600Z



MET'MAP, la Météo Aéronautique d'un coup d'oeil ! - Copyright ORBIFLY Décembre 2007 - Disclaimer

ORBIFLY MET'MAP TEAM :

Programmation & Développement : Alexandra Zaïnal
Sur une idée originale de : Baudouin d'Aumeries
Assistance à la programmation : Marc-Olivier Méhu
Soutien technique & logistique : Manuel Goepfert

Contact : metmap@orbifly.com




SOURCES & CREDITS :

   NOAA       Earth
Advisory